createdAt,value
2018-01-04T00:00:11.926Z,9.40
2018-01-04T00:02:40.150Z,9.40
2018-01-04T00:05:07.607Z,9.40
2018-01-04T00:07:35.434Z,9.50
2018-01-04T00:10:02.924Z,9.40
2018-01-04T00:12:30.387Z,9.40
2018-01-04T00:14:57.950Z,9.40
2018-01-04T00:17:25.414Z,9.40
2018-01-04T00:19:53.627Z,9.40
2018-01-04T00:22:22.174Z,9.40
2018-01-04T00:24:49.636Z,9.40
2018-01-04T00:27:17.091Z,9.40
2018-01-04T00:29:44.647Z,9.40
2018-01-04T00:32:12.121Z,9.30
2018-01-04T00:34:39.598Z,9.30
2018-01-04T00:37:07.502Z,9.40
2018-01-04T00:39:35.242Z,9.40
2018-01-04T00:42:02.710Z,9.40
2018-01-04T00:44:30.359Z,9.40
2018-01-04T00:46:57.832Z,9.40
2018-01-04T00:49:25.315Z,9.40
2018-01-04T00:51:53.151Z,9.40
2018-01-04T00:54:20.638Z,9.30
2018-01-04T00:56:48.110Z,9.40
2018-01-04T00:59:15.826Z,9.30
2018-01-04T01:01:43.257Z,9.40
2018-01-04T01:04:11.963Z,9.40
2018-01-04T01:06:39.837Z,9.40
2018-01-04T01:09:07.293Z,9.40
2018-01-04T01:11:34.754Z,9.30
2018-01-04T01:14:03.091Z,9.30
2018-01-04T01:16:31.306Z,9.30
2018-01-04T01:18:58.770Z,9.40
2018-01-04T01:21:26.624Z,9.40
2018-01-04T01:23:54.187Z,9.30
2018-01-04T01:26:21.654Z,9.30
2018-01-04T01:28:49.218Z,9.30
2018-01-04T01:31:16.671Z,9.20
2018-01-04T01:33:44.123Z,9.20
2018-01-04T01:36:11.607Z,9.30
2018-01-04T01:38:39.078Z,9.20
2018-01-04T01:41:06.540Z,9.20
2018-01-04T01:43:34.015Z,9.10
2018-01-04T01:46:01.482Z,9.10
2018-01-04T01:48:28.959Z,9.10
2018-01-04T01:50:56.729Z,9.10
2018-01-04T01:53:24.182Z,9.10
2018-01-04T01:55:51.646Z,9.10
2018-01-04T01:58:19.126Z,9.20
2018-01-04T02:00:46.606Z,9.20
2018-01-04T02:03:14.826Z,9.20
2018-01-04T02:05:42.650Z,9.20
2018-01-04T02:08:10.878Z,9.20
2018-01-04T02:10:38.333Z,9.20
2018-01-04T02:13:05.832Z,9.20
2018-01-04T02:15:33.286Z,9.30
2018-01-04T02:18:13.859Z,9.30
2018-01-04T02:20:54.084Z,9.30
2018-01-04T02:23:33.499Z,9.30
2018-01-04T02:26:00.975Z,9.20
2018-01-04T02:28:40.270Z,9.20
2018-01-04T02:31:19.597Z,9.20
2018-01-04T02:47:16.914Z,8.80
2018-01-04T02:49:44.358Z,8.80
2018-01-04T02:52:11.822Z,8.80
2018-01-04T02:54:39.679Z,8.80
2018-01-04T02:57:07.144Z,8.70
2018-01-04T02:59:34.682Z,8.70
2018-01-04T03:02:02.170Z,8.70
2018-01-04T03:04:30.488Z,8.70
2018-01-04T03:06:57.946Z,8.70
2018-01-04T03:09:25.422Z,8.70
2018-01-04T03:11:52.882Z,8.60
2018-01-04T03:14:20.418Z,8.60
2018-01-04T03:16:48.159Z,8.60
2018-01-04T03:19:15.619Z,8.60
2018-01-04T03:21:48.587Z,8.60
2018-01-04T03:24:16.810Z,8.60
2018-01-04T03:26:50.248Z,8.50
2018-01-04T03:29:32.582Z,8.50
2018-01-04T03:32:06.126Z,8.60
2018-01-04T03:34:39.291Z,8.50
2018-01-04T03:37:12.469Z,8.50
2018-01-04T03:39:39.950Z,8.50
2018-01-04T03:42:13.386Z,8.50
2018-01-04T03:44:47.226Z,8.50
2018-01-04T03:47:20.431Z,8.50
2018-01-04T03:49:53.575Z,8.50
2018-01-04T03:52:27.067Z,8.40
2018-01-04T03:55:01.050Z,8.50
2018-01-04T03:57:34.180Z,8.50
2018-01-04T04:00:08.013Z,8.50
2018-01-04T04:02:41.225Z,8.50
2018-01-04T04:05:14.392Z,8.50
2018-01-04T04:07:41.953Z,8.60
2018-01-04T04:10:09.417Z,8.50
2018-01-04T04:12:36.886Z,8.50
2018-01-04T04:15:04.692Z,8.50
2018-01-04T04:17:32.156Z,8.40
2018-01-04T04:19:59.610Z,8.50
2018-01-04T04:22:27.081Z,8.50
2018-01-04T04:24:55.311Z,8.60
2018-01-04T04:27:22.798Z,8.60
2018-01-04T04:29:51.382Z,8.60
2018-01-04T04:32:18.838Z,8.60
2018-01-04T04:34:46.294Z,8.70
2018-01-04T04:37:13.762Z,8.60
2018-01-04T04:39:41.982Z,8.80
2018-01-04T04:42:09.481Z,8.70
2018-01-04T04:44:37.458Z,8.80
2018-01-04T04:47:05.683Z,8.80
2018-01-04T04:49:33.160Z,8.80
2018-01-04T04:52:00.665Z,8.80
2018-01-04T04:54:28.912Z,8.70
2018-01-04T04:56:57.147Z,8.70
2018-01-04T04:59:24.958Z,8.70
2018-01-04T05:01:52.414Z,8.80
2018-01-04T05:04:19.877Z,8.70
2018-01-04T05:06:47.736Z,8.70
2018-01-04T05:09:15.198Z,8.60
2018-01-04T05:11:42.649Z,8.60
2018-01-04T05:14:10.414Z,8.60
2018-01-04T05:16:37.878Z,8.60
2018-01-04T05:19:06.133Z,8.50
2018-01-04T05:21:33.959Z,8.50
2018-01-04T05:24:01.422Z,8.60
2018-01-04T05:26:28.882Z,8.50
2018-01-04T05:28:56.691Z,8.50
2018-01-04T05:31:24.195Z,8.60
2018-01-04T05:33:51.662Z,8.60
2018-01-04T05:36:19.214Z,8.60
2018-01-04T05:38:46.693Z,8.60
2018-01-04T05:41:14.170Z,8.60
2018-01-04T05:43:41.686Z,8.60
2018-01-04T05:46:09.142Z,8.50
2018-01-04T05:48:36.615Z,8.50
2018-01-04T05:51:04.100Z,8.50
2018-01-04T05:53:31.560Z,8.50
2018-01-04T05:55:59.072Z,8.50
2018-01-04T05:58:26.890Z,8.50
2018-01-04T06:00:54.350Z,8.50
2018-01-04T06:03:21.805Z,8.50
2018-01-04T06:05:50.053Z,8.50
2018-01-04T06:08:17.511Z,8.50
2018-01-04T06:10:44.966Z,8.50
2018-01-04T06:13:12.742Z,8.50
2018-01-04T06:15:40.211Z,8.50
2018-01-04T06:18:07.678Z,8.50
2018-01-04T06:20:35.905Z,8.50
2018-01-04T06:23:03.366Z,8.50
2018-01-04T06:25:30.822Z,8.40
2018-01-04T06:27:58.614Z,8.40
2018-01-04T06:30:26.066Z,8.50
2018-01-04T06:32:53.527Z,8.40
2018-01-04T06:35:20.990Z,8.40
2018-01-04T06:37:48.448Z,8.50
2018-01-04T06:40:15.906Z,8.40
2018-01-04T06:42:43.771Z,8.40
2018-01-04T06:45:11.220Z,8.40
2018-01-04T06:47:38.689Z,8.40
2018-01-04T06:50:06.942Z,8.40
2018-01-04T06:52:34.417Z,8.40
2018-01-04T06:55:01.902Z,8.50
2018-01-04T06:57:30.134Z,8.40
2018-01-04T06:59:57.595Z,8.40
2018-01-04T07:02:25.060Z,8.40
2018-01-04T07:04:52.536Z,8.40
2018-01-04T07:07:20.774Z,8.50
2018-01-04T07:09:48.301Z,8.50
2018-01-04T07:12:15.766Z,8.50
2018-01-04T07:14:43.234Z,8.50
2018-01-04T07:17:10.718Z,8.50
2018-01-04T07:19:38.597Z,8.60
2018-01-04T07:22:06.877Z,8.60
2018-01-04T07:24:35.110Z,8.50
2018-01-04T07:27:02.599Z,8.50
2018-01-04T07:29:30.830Z,8.60
2018-01-04T07:31:58.309Z,8.60
2018-01-04T07:34:25.779Z,8.50
2018-01-04T07:36:53.296Z,8.50
2018-01-04T07:39:20.857Z,8.60
2018-01-04T07:41:48.587Z,8.60
2018-01-04T07:44:16.819Z,8.60
2018-01-04T07:46:44.279Z,8.60
2018-01-04T07:49:11.758Z,8.70
2018-01-04T07:51:39.234Z,8.60
2018-01-04T07:54:07.458Z,8.60
2018-01-04T07:56:34.959Z,8.60
2018-01-04T07:59:03.271Z,8.60
2018-01-04T08:01:30.830Z,8.60
2018-01-04T08:03:58.306Z,8.60
2018-01-04T08:06:25.774Z,8.60
2018-01-04T08:08:53.238Z,8.60
2018-01-04T08:11:20.702Z,8.60
2018-01-04T08:13:48.185Z,8.60
2018-01-04T08:16:16.411Z,8.60
2018-01-04T08:18:43.949Z,8.60
2018-01-04T08:21:11.475Z,8.60
2018-01-04T08:23:39.697Z,8.60
2018-01-04T08:26:07.174Z,8.60
2018-01-04T08:28:34.650Z,8.60
2018-01-04T08:31:02.101Z,8.60
2018-01-04T08:33:29.809Z,8.60
2018-01-04T08:35:57.272Z,8.60
2018-01-04T08:38:24.738Z,8.60
2018-01-04T08:40:52.550Z,8.60
2018-01-04T08:43:20.076Z,8.70
2018-01-04T08:45:47.530Z,8.60
2018-01-04T08:48:15.127Z,8.60
2018-01-04T08:50:42.591Z,8.70
2018-01-04T08:53:11.982Z,8.70
2018-01-04T08:55:40.383Z,8.60
2018-01-04T08:58:08.677Z,8.60
2018-01-04T09:00:36.149Z,8.70
2018-01-04T09:03:04.017Z,8.60
2018-01-04T09:05:31.501Z,8.70
2018-01-04T09:07:58.983Z,8.70
2018-01-04T09:10:27.226Z,8.70
2018-01-04T09:12:54.708Z,8.70
2018-01-04T09:15:22.957Z,8.70
2018-01-04T09:17:50.746Z,8.70
2018-01-04T09:20:18.975Z,8.70
2018-01-04T09:22:46.452Z,8.70
2018-01-04T09:25:13.911Z,8.80
2018-01-04T09:27:41.442Z,8.80
2018-01-04T09:30:08.898Z,8.90
2018-01-04T09:32:36.383Z,8.90
2018-01-04T09:35:03.838Z,9.00
2018-01-04T09:37:31.299Z,9.00
2018-01-04T09:39:58.799Z,9.00
2018-01-04T09:42:27.030Z,9.00
2018-01-04T09:44:54.493Z,9.00
2018-01-04T09:47:21.984Z,9.00
2018-01-04T09:49:50.204Z,9.10
2018-01-04T09:52:17.674Z,9.10
2018-01-04T09:54:45.173Z,9.20
2018-01-04T09:57:13.406Z,9.30
2018-01-04T09:59:40.866Z,9.20
2018-01-04T10:02:09.264Z,9.10
2018-01-04T10:04:36.730Z,9.20
2018-01-04T10:07:04.989Z,9.20
2018-01-04T10:09:32.459Z,9.20
2018-01-04T10:11:59.933Z,9.20
2018-01-04T10:14:27.418Z,9.20
2018-01-04T10:16:54.975Z,9.10
2018-01-04T10:19:22.459Z,9.10
2018-01-04T10:21:49.930Z,9.10
2018-01-04T10:24:17.406Z,9.10
2018-01-04T10:26:45.652Z,9.00
2018-01-04T10:29:13.130Z,9.00
2018-01-04T10:31:40.641Z,9.00
2018-01-04T10:34:08.103Z,9.00
2018-01-04T10:36:35.582Z,9.00
2018-01-04T10:39:03.067Z,9.10
2018-01-04T10:41:31.303Z,9.00
2018-01-04T10:43:58.843Z,9.00
2018-01-04T10:46:26.344Z,9.00
2018-01-04T10:48:53.840Z,9.10
2018-01-04T10:51:21.338Z,9.10
2018-01-04T10:53:48.828Z,9.20
2018-01-04T10:56:17.084Z,9.30
2018-01-04T10:58:44.542Z,9.30
2018-01-04T11:01:12.045Z,9.40
2018-01-04T11:03:39.954Z,9.40
2018-01-04T11:06:07.446Z,9.40
2018-01-04T11:08:35.698Z,9.40
2018-01-04T11:11:03.162Z,9.40
2018-01-04T11:13:30.618Z,9.40
2018-01-04T11:15:58.098Z,9.40
2018-01-04T11:18:26.328Z,9.40
2018-01-04T11:20:53.822Z,9.40
2018-01-04T11:23:22.354Z,9.40
2018-01-04T11:25:49.843Z,9.40
2018-01-04T11:28:17.788Z,9.40
2018-01-04T11:30:45.336Z,9.30
2018-01-04T11:33:12.790Z,9.30
2018-01-04T11:35:40.252Z,9.30
2018-01-04T11:38:07.735Z,9.40
2018-01-04T11:40:35.194Z,9.40
2018-01-04T11:43:02.718Z,9.50
2018-01-04T11:45:30.200Z,9.40
2018-01-04T11:47:57.642Z,9.50
2018-01-04T11:50:25.196Z,9.40
2018-01-04T11:52:52.706Z,9.40
2018-01-04T11:55:21.027Z,9.30
2018-01-04T11:57:48.494Z,9.30
2018-01-04T12:00:15.964Z,9.30
2018-01-04T12:02:43.424Z,9.30
2018-01-04T12:05:10.904Z,9.30
2018-01-04T12:07:38.374Z,9.30
2018-01-04T12:10:06.601Z,9.30
2018-01-04T12:12:34.144Z,9.30
2018-01-04T12:15:01.702Z,9.30
2018-01-04T12:17:29.170Z,9.30
2018-01-04T12:19:56.635Z,9.20
2018-01-04T12:22:24.127Z,9.20
2018-01-04T12:24:51.606Z,9.20
2018-01-04T12:27:19.071Z,9.20
2018-01-04T12:29:46.906Z,9.10
2018-01-04T12:32:15.229Z,9.00
2018-01-04T12:34:42.702Z,9.00
2018-01-04T12:37:10.200Z,8.90
2018-01-04T12:39:38.434Z,8.90
2018-01-04T12:42:05.975Z,8.90
2018-01-04T12:44:33.511Z,8.90
2018-01-04T12:47:01.007Z,9.00
2018-01-04T12:49:28.470Z,9.00
2018-01-04T12:51:55.937Z,9.00
2018-01-04T12:54:23.426Z,9.10
2018-01-04T12:56:50.919Z,9.10
2018-01-04T12:59:18.479Z,9.10
2018-01-04T13:01:45.939Z,9.00
2018-01-04T13:04:13.394Z,9.00
2018-01-04T13:06:40.859Z,8.90
2018-01-04T13:09:08.330Z,8.90
2018-01-04T13:11:35.798Z,8.80
2018-01-04T13:14:03.276Z,8.80
2018-01-04T13:16:30.763Z,8.80
2018-01-04T13:18:58.983Z,8.80
2018-01-04T13:21:27.342Z,8.80
2018-01-04T13:23:54.811Z,8.90
2018-01-04T13:26:22.297Z,8.90
2018-01-04T13:28:50.118Z,8.80
2018-01-04T13:31:17.591Z,8.80
2018-01-04T13:33:45.059Z,8.80
2018-01-04T13:36:13.403Z,8.80
2018-01-04T13:38:40.866Z,8.80
2018-01-04T13:41:08.341Z,8.80
2018-01-04T13:43:35.822Z,8.80
2018-01-04T13:46:04.062Z,8.90
2018-01-04T13:48:31.521Z,8.90
2018-01-04T13:50:59.005Z,9.00
2018-01-04T13:53:26.466Z,9.10
2018-01-04T13:55:53.975Z,9.20
2018-01-04T13:58:21.456Z,9.30
2018-01-04T14:00:48.922Z,9.30
2018-01-04T14:03:16.382Z,9.30
2018-01-04T14:05:44.164Z,9.40
2018-01-04T14:08:11.646Z,9.40
2018-01-04T14:10:39.137Z,9.40
2018-01-04T14:13:06.764Z,9.50
2018-01-04T14:15:34.218Z,9.50
2018-01-04T14:18:01.771Z,9.50
2018-01-04T14:20:30.015Z,9.50
2018-01-04T14:22:57.535Z,9.50
2018-01-04T14:25:25.105Z,9.60
2018-01-04T14:27:52.588Z,9.60
2018-01-04T14:30:20.050Z,9.70
2018-01-04T14:32:49.514Z,9.70
2018-01-04T14:35:17.011Z,9.70
2018-01-04T14:37:44.483Z,9.80
2018-01-04T14:40:13.533Z,9.90
2018-01-04T14:42:41.013Z,10.00
2018-01-04T14:45:08.491Z,10.00
2018-01-04T14:47:35.984Z,10.00
2018-01-04T14:50:03.479Z,10.00
2018-01-04T14:52:30.960Z,10.10
2018-01-04T14:54:58.421Z,10.10
2018-01-04T14:57:26.995Z,10.20
2018-01-04T14:59:54.474Z,10.20
2018-01-04T15:02:22.710Z,10.20
2018-01-04T15:04:50.201Z,10.20
2018-01-04T15:07:18.494Z,10.30
2018-01-04T15:09:45.986Z,10.20
2018-01-04T15:12:13.468Z,10.30
2018-01-04T15:14:40.932Z,10.30
2018-01-04T15:17:08.954Z,10.40
2018-01-04T15:19:36.767Z,10.40
2018-01-04T15:22:04.235Z,10.40
2018-01-04T15:24:32.475Z,10.40
2018-01-04T15:26:59.964Z,10.40
2018-01-04T15:29:27.523Z,10.40
2018-01-04T15:31:55.762Z,10.30
2018-01-04T15:34:23.246Z,10.30
2018-01-04T15:36:50.758Z,10.40
2018-01-04T15:39:18.222Z,10.40
2018-01-04T15:41:45.726Z,10.40
2018-01-04T15:44:13.239Z,10.40
2018-01-04T15:46:40.968Z,10.40
2018-01-04T15:49:08.702Z,10.50
2018-01-04T15:51:36.280Z,10.50
2018-01-04T15:54:03.961Z,10.50
2018-01-04T15:56:31.555Z,10.50
2018-01-04T15:58:59.940Z,10.60
2018-01-04T16:01:27.491Z,10.60
2018-01-04T16:03:55.012Z,10.60
2018-01-04T16:06:22.784Z,10.60
2018-01-04T16:08:50.274Z,10.50
2018-01-04T16:11:18.195Z,10.40
2018-01-04T16:13:46.427Z,10.40
2018-01-04T16:16:14.959Z,10.50
2018-01-04T16:18:43.494Z,10.40
2018-01-04T16:21:11.235Z,10.40
2018-01-04T16:23:38.817Z,10.40
2018-01-04T16:26:06.303Z,10.20
2018-01-04T16:28:34.611Z,10.20
2018-01-04T16:31:02.068Z,10.20
2018-01-04T16:33:29.546Z,10.20
2018-01-04T16:35:57.012Z,10.20
2018-01-04T16:38:24.546Z,10.20
2018-01-04T16:40:52.366Z,10.20
2018-01-04T16:43:20.605Z,10.30
2018-01-04T16:45:48.120Z,10.30
2018-01-04T16:48:15.668Z,10.30
2018-01-04T16:50:43.960Z,10.40
2018-01-04T16:53:11.434Z,10.40
2018-01-04T16:55:38.906Z,10.40
2018-01-04T16:58:06.388Z,10.40
2018-01-04T17:00:33.853Z,10.40
2018-01-04T17:03:01.623Z,10.40
2018-01-04T17:05:29.089Z,10.40
2018-01-04T17:07:57.318Z,10.40
2018-01-04T17:10:25.120Z,10.40
2018-01-04T17:12:53.366Z,10.40
2018-01-04T17:15:20.895Z,10.40
2018-01-04T17:17:48.423Z,10.40
2018-01-04T17:20:16.723Z,10.50
2018-01-04T17:22:44.189Z,10.40
2018-01-04T17:25:11.678Z,10.40
2018-01-04T17:27:39.138Z,10.40
2018-01-04T17:30:06.698Z,10.40
2018-01-04T17:32:34.588Z,10.40
2018-01-04T17:35:02.835Z,10.40
2018-01-04T17:37:30.311Z,10.40
2018-01-04T17:39:57.809Z,10.40
2018-01-04T17:42:25.324Z,10.40
2018-01-04T17:44:52.799Z,10.40
2018-01-04T17:47:21.050Z,10.40
2018-01-04T17:49:48.521Z,10.40
2018-01-04T17:52:16.022Z,10.40
2018-01-04T17:54:43.546Z,10.30
2018-01-04T17:57:11.962Z,10.40
2018-01-04T17:59:39.470Z,10.30
2018-01-04T18:02:06.976Z,10.40
2018-01-04T18:04:34.438Z,10.40
2018-01-04T18:07:01.918Z,10.40
2018-01-04T18:09:29.388Z,10.40
2018-01-04T18:11:57.004Z,10.40
2018-01-04T18:14:24.487Z,10.40
2018-01-04T18:16:52.378Z,10.40
2018-01-04T18:19:20.634Z,10.40
2018-01-04T18:21:48.904Z,10.40
2018-01-04T18:24:16.384Z,10.40
2018-01-04T18:26:44.622Z,10.30
2018-01-04T18:29:12.116Z,10.30
2018-01-04T18:31:39.606Z,10.30
2018-01-04T18:34:07.090Z,10.30
2018-01-04T18:36:34.572Z,10.30
2018-01-04T18:39:02.358Z,10.30
2018-01-04T18:41:29.818Z,10.30
2018-01-04T18:43:57.285Z,10.30
2018-01-04T18:46:25.588Z,10.20
2018-01-04T18:48:53.046Z,10.20
2018-01-04T18:51:20.520Z,10.20
2018-01-04T18:53:47.998Z,10.20
2018-01-04T18:56:15.525Z,10.20
2018-01-04T18:58:42.989Z,10.20
2018-01-04T19:01:10.807Z,10.10
2018-01-04T19:03:38.296Z,10.10
2018-01-04T19:06:05.767Z,10.10
2018-01-04T19:08:33.578Z,10.10
2018-01-04T19:11:01.053Z,10.10
2018-01-04T19:13:29.358Z,10.10
2018-01-04T19:15:57.166Z,10.10
2018-01-04T19:18:24.654Z,10.20
2018-01-04T19:20:52.957Z,10.10
2018-01-04T19:23:20.822Z,10.10
2018-01-04T19:25:48.282Z,10.00
2018-01-04T19:28:15.758Z,10.00
2018-01-04T19:30:43.242Z,9.90
2018-01-04T19:33:10.720Z,9.90
2018-01-04T19:35:38.962Z,9.80
2018-01-04T19:38:06.857Z,9.80
2018-01-04T19:40:34.337Z,9.80
2018-01-04T19:43:01.784Z,9.70
2018-01-04T19:45:29.266Z,9.70
2018-01-04T19:47:56.735Z,9.70
2018-01-04T19:50:24.226Z,9.60
2018-01-04T19:52:51.702Z,9.60
2018-01-04T19:55:19.296Z,9.60
2018-01-04T19:57:46.774Z,9.60
2018-01-04T20:00:14.258Z,9.60
2018-01-04T20:02:41.839Z,9.50
2018-01-04T20:05:10.100Z,9.40
2018-01-04T20:07:38.282Z,9.40
2018-01-04T20:10:06.582Z,9.40
2018-01-04T20:12:34.946Z,9.50
2018-01-04T20:15:03.532Z,9.50
2018-01-04T20:17:31.852Z,9.40
2018-01-04T20:19:59.325Z,9.40
2018-01-04T20:22:27.208Z,9.30
2018-01-04T20:24:54.666Z,9.20
2018-01-04T20:27:23.272Z,9.20
2018-01-04T20:29:51.529Z,9.10
2018-01-04T20:32:19.773Z,9.00
2018-01-04T20:34:47.232Z,9.00
2018-01-04T20:37:14.714Z,9.00
2018-01-04T20:39:42.963Z,8.90
2018-01-04T20:42:10.421Z,8.80
2018-01-04T20:44:37.902Z,8.80
2018-01-04T20:47:06.143Z,8.80
2018-01-04T20:49:33.641Z,8.80
2018-01-04T20:52:01.899Z,8.70
2018-01-04T20:54:29.362Z,8.70
2018-01-04T20:56:56.879Z,8.70
2018-01-04T20:59:24.379Z,8.70
2018-01-04T21:01:52.655Z,8.70
2018-01-04T21:04:20.119Z,8.70
2018-01-04T21:06:49.055Z,8.60
2018-01-04T21:09:16.588Z,8.60
2018-01-04T21:11:44.072Z,8.70
2018-01-04T21:14:11.586Z,8.60
2018-01-04T21:16:39.850Z,8.60
2018-01-04T21:19:07.377Z,8.50
2018-01-04T21:21:34.875Z,8.50
2018-01-04T21:24:03.125Z,8.50
2018-01-04T21:26:30.594Z,8.50
2018-01-04T21:28:58.362Z,8.40
2018-01-04T21:31:25.818Z,8.30
2018-01-04T21:33:53.278Z,8.30
2018-01-04T21:36:21.104Z,8.30
2018-01-04T21:38:48.567Z,8.30
2018-01-04T21:41:16.039Z,8.30
2018-01-04T21:43:43.828Z,8.30
2018-01-04T21:46:12.183Z,8.30
2018-01-04T21:48:39.703Z,8.20
2018-01-04T21:51:08.846Z,8.30
2018-01-04T21:53:37.095Z,8.20
2018-01-04T21:56:04.633Z,8.20
2018-01-04T21:58:32.447Z,8.20
2018-01-04T22:00:59.906Z,8.30
2018-01-04T22:03:27.364Z,8.30
2018-01-04T22:05:54.913Z,8.30
2018-01-04T22:08:22.396Z,8.30
2018-01-04T22:10:50.636Z,8.30
2018-01-04T22:13:18.136Z,8.30
2018-01-04T22:15:45.636Z,8.40
2018-01-04T22:18:13.529Z,8.40
2018-01-04T22:20:41.290Z,8.40
2018-01-04T22:23:08.754Z,8.40
2018-01-04T22:25:36.222Z,8.40
2018-01-04T22:28:04.818Z,8.50
2018-01-04T22:30:33.128Z,8.50
2018-01-04T22:33:00.630Z,8.40
2018-01-04T22:35:28.115Z,8.40
2018-01-04T22:37:55.579Z,8.40
2018-01-04T22:40:23.062Z,8.30
2018-01-04T22:42:50.564Z,8.30
2018-01-04T22:45:18.015Z,8.30
2018-01-04T22:47:45.554Z,8.30
2018-01-04T22:50:13.318Z,8.30
2018-01-04T22:52:40.793Z,8.30
2018-01-04T22:55:08.244Z,8.30
2018-01-04T22:57:36.125Z,8.30
2018-01-04T23:00:03.742Z,8.30
2018-01-04T23:02:31.196Z,8.30
2018-01-04T23:04:58.658Z,8.30
2018-01-04T23:07:26.139Z,8.30
2018-01-04T23:09:53.615Z,8.20
2018-01-04T23:12:22.192Z,8.20
2018-01-04T23:14:50.428Z,8.20
2018-01-04T23:17:18.703Z,8.20
2018-01-04T23:19:46.519Z,8.20
2018-01-04T23:22:14.752Z,8.20
2018-01-04T23:24:42.210Z,8.20
2018-01-04T23:27:09.690Z,8.30
2018-01-04T23:29:37.161Z,8.30
2018-01-04T23:32:05.380Z,8.30
2018-01-04T23:34:33.219Z,8.30
2018-01-04T23:37:01.435Z,8.40
2018-01-04T23:39:28.973Z,8.40
2018-01-04T23:41:56.534Z,8.40
2018-01-04T23:44:24.091Z,8.30
2018-01-04T23:46:51.577Z,8.40
2018-01-04T23:49:19.100Z,8.40
2018-01-04T23:51:46.598Z,8.40
2018-01-04T23:54:14.056Z,8.30
2018-01-04T23:56:41.555Z,8.40
2018-01-04T23:59:09.855Z,8.40
